Accueil
METAR-TAF:

METAR-TAF

Aéroports :

Aéroport du Gloucestershire

Gloucester, Angleterre

latitude: 51-54N, longitude: 002-10W, altitude: 29 m

Observation

Le bulletin a été fait il y a 1 heure et 17 minutes, à 17:50 UTC
Vent 10 kt de nord
Température 19°C
Humidité 73%
Pression 1019 hPa
Visibilité 10 km ou plus
Quelques nuages à une hauteur de 2800 ft
Nuages épars à une hauteur de 4800 ft

METAR: EGBJ 201750Z 35010KT 9999 FEW028 SCT048 19/14 Q1019

Heure: 20:07 (19:07 UTC)

Prévision

Le bulletin a été fait il y a 44 minutes, à 18:23 UTC
Prévision valable du 20 à 18 UTC au 20 à 19 UTC
Vent 9 kt de nord/nord-ouest
Visibilité 10 km ou plus
Nuages épars à une hauteur de 4000 ft

TAF: EGBJ 201823Z 2018/2019 34009KT 9999 SCT040

Observations et prévisions météorologiques de plus de 4000 aéroports (messages METAR et TAF).

Les stations disponibles sont représentées par des disques jaunes et rouges sur la carte.

Passer la souris dessus pour voir le nom de la station.

Cliquer dessus pour voir les observations et prévisions météorologiques.

Pour changer de carte: cliquez sur les boutons verts avec une croix noire pour zoomer, sur le bouton vert avec un tiret pour effectuer un zoom arrière, ou sur les flèches vertes pour les cartes adjacentes.


METAR-TAF: